sensor_id;sensor_type;location;lat;lon;timestamp;P1;P2;P0
73565;PMS5003;61846;52.970;-3.168;2023-04-30T00:02:03;28;23;
73565;PMS5003;61846;52.970;-3.168;2023-04-30T00:04:29;31;25;
73565;PMS5003;61846;52.970;-3.168;2023-04-30T00:06:55;20;20;
73565;PMS5003;61846;52.970;-3.168;2023-04-30T00:09:20;22;22;
73565;PMS5003;61846;52.970;-3.168;2023-04-30T00:11:45;28;22;
73565;PMS5003;61846;52.970;-3.168;2023-04-30T00:14:10;22;22;
73565;PMS5003;61846;52.970;-3.168;2023-04-30T00:16:36;22;18;
73565;PMS5003;61846;52.970;-3.168;2023-04-30T00:19:02;30;21;
73565;PMS5003;61846;52.970;-3.168;2023-04-30T00:21:27;25;21;
73565;PMS5003;61846;52.970;-3.168;2023-04-30T00:23:53;25;25;
73565;PMS5003;61846;52.970;-3.168;2023-04-30T00:26:19;33;30;
73565;PMS5003;61846;52.970;-3.168;2023-04-30T00:28:44;36;29;
73565;PMS5003;61846;52.970;-3.168;2023-04-30T00:31:09;28;23;
73565;PMS5003;61846;52.970;-3.168;2023-04-30T00:33:34;35;29;
73565;PMS5003;61846;52.970;-3.168;2023-04-30T00:35:59;44;34;
73565;PMS5003;61846;52.970;-3.168;2023-04-30T00:38:25;25;25;
73565;PMS5003;61846;52.970;-3.168;2023-04-30T00:40:50;37;28;
73565;PMS5003;61846;52.970;-3.168;2023-04-30T00:43:15;39;29;
73565;PMS5003;61846;52.970;-3.168;2023-04-30T00:45:40;34;27;
73565;PMS5003;61846;52.970;-3.168;2023-04-30T00:48:06;24;22;
73565;PMS5003;61846;52.970;-3.168;2023-04-30T00:50:31;23;20;
73565;PMS5003;61846;52.970;-3.168;2023-04-30T00:52:56;21;18;
73565;PMS5003;61846;52.970;-3.168;2023-04-30T00:55:21;25;19;
73565;PMS5003;61846;52.970;-3.168;2023-04-30T00:57:47;27;26;
73565;PMS5003;61846;52.970;-3.168;2023-04-30T01:00:12;24;23;
73565;PMS5003;61846;52.970;-3.168;2023-04-30T01:02:37;23;19;
73565;PMS5003;61846;52.970;-3.168;2023-04-30T01:05:03;27;24;
73565;PMS5003;61846;52.970;-3.168;2023-04-30T01:07:28;33;27;
73565;PMS5003;61846;52.970;-3.168;2023-04-30T01:09:53;35;26;
73565;PMS5003;61846;52.970;-3.168;2023-04-30T01:12:19;29;25;
73565;PMS5003;61846;52.970;-3.168;2023-04-30T01:14:49;30;24;
73565;PMS5003;61846;52.970;-3.168;2023-04-30T01:17:12;35;24;
73565;PMS5003;61846;52.970;-3.168;2023-04-30T01:19:37;28;23;
73565;PMS5003;61846;52.970;-3.168;2023-04-30T01:22:02;29;23;
73565;PMS5003;61846;52.970;-3.168;2023-04-30T01:24:31;24;20;
73565;PMS5003;61846;52.970;-3.168;2023-04-30T01:26:52;29;25;
73565;PMS5003;61846;52.970;-3.168;2023-04-30T01:29:16;36;28;
73565;PMS5003;61846;52.970;-3.168;2023-04-30T01:31:42;29;24;
73565;PMS5003;61846;52.970;-3.168;2023-04-30T01:34:06;31;24;
73565;PMS5003;61846;52.970;-3.168;2023-04-30T01:36:34;31;24;
73565;PMS5003;61846;52.970;-3.168;2023-04-30T01:39:07;30;25;
73565;PMS5003;61846;52.970;-3.168;2023-04-30T01:41:25;21;20;
73565;PMS5003;61846;52.970;-3.168;2023-04-30T01:43:49;30;22;
73565;PMS5003;61846;52.970;-3.168;2023-04-30T01:46:16;29;23;
73565;PMS5003;61846;52.970;-3.168;2023-04-30T01:48:42;26;21;
73565;PMS5003;61846;52.970;-3.168;2023-04-30T01:51:06;29;22;
73565;PMS5003;61846;52.970;-3.168;2023-04-30T01:53:31;39;32;
73565;PMS5003;61846;52.970;-3.168;2023-04-30T01:55:56;31;25;
73565;PMS5003;61846;52.970;-3.168;2023-04-30T01:58:21;28;24;
73565;PMS5003;61846;52.970;-3.168;2023-04-30T02:00:47;34;25;
73565;PMS5003;61846;52.970;-3.168;2023-04-30T02:03:12;35;23;
73565;PMS5003;61846;52.970;-3.168;2023-04-30T02:05:38;26;22;
73565;PMS5003;61846;52.970;-3.168;2023-04-30T02:08:03;27;20;
73565;PMS5003;61846;52.970;-3.168;2023-04-30T02:10:29;35;25;
73565;PMS5003;61846;52.970;-3.168;2023-04-30T02:12:54;21;21;
73565;PMS5003;61846;52.970;-3.168;2023-04-30T02:15:20;19;18;
73565;PMS5003;61846;52.970;-3.168;2023-04-30T02:17:46;24;21;
73565;PMS5003;61846;52.970;-3.168;2023-04-30T02:20:11;25;20;
73565;PMS5003;61846;52.970;-3.168;2023-04-30T02:22:36;29;21;
73565;PMS5003;61846;52.970;-3.168;2023-04-30T02:25:02;21;17;
73565;PMS5003;61846;52.970;-3.168;2023-04-30T02:27:29;24;16;
73565;PMS5003;61846;52.970;-3.168;2023-04-30T02:29:53;25;20;
73565;PMS5003;61846;52.970;-3.168;2023-04-30T02:32:19;20;20;
73565;PMS5003;61846;52.970;-3.168;2023-04-30T02:34:44;21;20;
73565;PMS5003;61846;52.970;-3.168;2023-04-30T02:37:10;29;24;
73565;PMS5003;61846;52.970;-3.168;2023-04-30T02:39:36;24;22;
73565;PMS5003;61846;52.970;-3.168;2023-04-30T02:42:01;28;23;
73565;PMS5003;61846;52.970;-3.168;2023-04-30T02:44:27;30;25;
73565;PMS5003;61846;52.970;-3.168;2023-04-30T02:46:52;27;25;
73565;PMS5003;61846;52.970;-3.168;2023-04-30T02:49:18;25;22;
73565;PMS5003;61846;52.970;-3.168;2023-04-30T02:51:43;27;21;
73565;PMS5003;61846;52.970;-3.168;2023-04-30T02:54:09;27;25;
73565;PMS5003;61846;52.970;-3.168;2023-04-30T02:56:34;27;25;
73565;PMS5003;61846;52.970;-3.168;2023-04-30T02:59:00;26;26;
73565;PMS5003;61846;52.970;-3.168;2023-04-30T03:01:26;34;25;
73565;PMS5003;61846;52.970;-3.168;2023-04-30T03:03:51;27;26;
73565;PMS5003;61846;52.970;-3.168;2023-04-30T03:06:16;28;25;
73565;PMS5003;61846;52.970;-3.168;2023-04-30T03:08:41;29;24;
73565;PMS5003;61846;52.970;-3.168;2023-04-30T03:11:07;26;23;
73565;PMS5003;61846;52.970;-3.168;2023-04-30T03:13:32;34;27;
73565;PMS5003;61846;52.970;-3.168;2023-04-30T03:15:58;25;23;
73565;PMS5003;61846;52.970;-3.168;2023-04-30T03:18:23;23;22;
73565;PMS5003;61846;52.970;-3.168;2023-04-30T03:20:48;31;22;
73565;PMS5003;61846;52.970;-3.168;2023-04-30T03:23:14;28;22;
73565;PMS5003;61846;52.970;-3.168;2023-04-30T03:25:39;24;22;
73565;PMS5003;61846;52.970;-3.168;2023-04-30T03:28:04;26;24;
73565;PMS5003;61846;52.970;-3.168;2023-04-30T03:30:30;25;21;
73565;PMS5003;61846;52.970;-3.168;2023-04-30T03:32:56;34;25;
73565;PMS5003;61846;52.970;-3.168;2023-04-30T03:35:21;32;26;
73565;PMS5003;61846;52.970;-3.168;2023-04-30T03:37:47;26;20;
73565;PMS5003;61846;52.970;-3.168;2023-04-30T03:40:12;27;19;
73565;PMS5003;61846;52.970;-3.168;2023-04-30T03:42:38;21;20;
73565;PMS5003;61846;52.970;-3.168;2023-04-30T03:45:04;26;23;
73565;PMS5003;61846;52.970;-3.168;2023-04-30T03:47:29;25;21;
73565;PMS5003;61846;52.970;-3.168;2023-04-30T03:49:54;27;21;
73565;PMS5003;61846;52.970;-3.168;2023-04-30T03:52:20;28;20;
73565;PMS5003;61846;52.970;-3.168;2023-04-30T03:54:45;24;21;
73565;PMS5003;61846;52.970;-3.168;2023-04-30T03:57:11;23;19;
73565;PMS5003;61846;52.970;-3.168;2023-04-30T03:59:36;26;23;
73565;PMS5003;61846;52.970;-3.168;2023-04-30T04:02:02;26;23;
73565;PMS5003;61846;52.970;-3.168;2023-04-30T04:04:28;20;20;
73565;PMS5003;61846;52.970;-3.168;2023-04-30T04:06:53;20;18;
73565;PMS5003;61846;52.970;-3.168;2023-04-30T04:09:19;22;19;
73565;PMS5003;61846;52.970;-3.168;2023-04-30T04:11:44;21;19;
73565;PMS5003;61846;52.970;-3.168;2023-04-30T04:14:10;20;20;
73565;PMS5003;61846;52.970;-3.168;2023-04-30T04:16:35;19;17;
73565;PMS5003;61846;52.970;-3.168;2023-04-30T04:19:01;20;18;
73565;PMS5003;61846;52.970;-3.168;2023-04-30T04:21:27;22;22;
73565;PMS5003;61846;52.970;-3.168;2023-04-30T04:23:52;26;18;
73565;PMS5003;61846;52.970;-3.168;2023-04-30T04:26:18;29;24;
73565;PMS5003;61846;52.970;-3.168;2023-04-30T04:28:43;22;21;
73565;PMS5003;61846;52.970;-3.168;2023-04-30T04:31:08;25;22;
73565;PMS5003;61846;52.970;-3.168;2023-04-30T04:33:34;31;26;
73565;PMS5003;61846;52.970;-3.168;2023-04-30T04:36:00;32;22;
73565;PMS5003;61846;52.970;-3.168;2023-04-30T04:38:25;20;19;
73565;PMS5003;61846;52.970;-3.168;2023-04-30T04:40:51;26;21;
73565;PMS5003;61846;52.970;-3.168;2023-04-30T04:43:17;21;20;
73565;PMS5003;61846;52.970;-3.168;2023-04-30T04:45:42;23;21;
73565;PMS5003;61846;52.970;-3.168;2023-04-30T04:48:08;21;21;
73565;PMS5003;61846;52.970;-3.168;2023-04-30T04:50:33;24;24;
73565;PMS5003;61846;52.970;-3.168;2023-04-30T04:52:59;26;23;
73565;PMS5003;61846;52.970;-3.168;2023-04-30T04:55:24;28;24;
73565;PMS5003;61846;52.970;-3.168;2023-04-30T04:57:49;31;28;
73565;PMS5003;61846;52.970;-3.168;2023-04-30T05:00:15;33;29;
73565;PMS5003;61846;52.970;-3.168;2023-04-30T05:02:40;24;23;
73565;PMS5003;61846;52.970;-3.168;2023-04-30T05:05:06;27;27;
73565;PMS5003;61846;52.970;-3.168;2023-04-30T05:07:31;34;29;
73565;PMS5003;61846;52.970;-3.168;2023-04-30T05:09:56;32;26;
73565;PMS5003;61846;52.970;-3.168;2023-04-30T05:12:21;31;28;
73565;PMS5003;61846;52.970;-3.168;2023-04-30T05:14:46;32;28;
73565;PMS5003;61846;52.970;-3.168;2023-04-30T05:17:12;31;25;
73565;PMS5003;61846;52.970;-3.168;2023-04-30T05:19:37;28;23;
73565;PMS5003;61846;52.970;-3.168;2023-04-30T05:22:03;35;32;
73565;PMS5003;61846;52.970;-3.168;2023-04-30T05:24:29;30;29;
73565;PMS5003;61846;52.970;-3.168;2023-04-30T05:26:54;33;26;
73565;PMS5003;61846;52.970;-3.168;2023-04-30T05:29:20;44;31;
73565;PMS5003;61846;52.970;-3.168;2023-04-30T05:31:46;34;29;
73565;PMS5003;61846;52.970;-3.168;2023-04-30T05:34:11;39;29;
73565;PMS5003;61846;52.970;-3.168;2023-04-30T05:36:37;30;27;
73565;PMS5003;61846;52.970;-3.168;2023-04-30T05:39:02;30;25;
73565;PMS5003;61846;52.970;-3.168;2023-04-30T05:41:27;37;30;
73565;PMS5003;61846;52.970;-3.168;2023-04-30T05:43:53;33;29;
73565;PMS5003;61846;52.970;-3.168;2023-04-30T05:46:18;39;29;
73565;PMS5003;61846;52.970;-3.168;2023-04-30T05:48:43;31;30;
73565;PMS5003;61846;52.970;-3.168;2023-04-30T05:51:09;27;27;
73565;PMS5003;61846;52.970;-3.168;2023-04-30T05:53:34;33;28;
73565;PMS5003;61846;52.970;-3.168;2023-04-30T05:56:00;39;29;
73565;PMS5003;61846;52.970;-3.168;2023-04-30T05:58:25;35;27;
73565;PMS5003;61846;52.970;-3.168;2023-04-30T06:00:50;29;26;
73565;PMS5003;61846;52.970;-3.168;2023-04-30T06:03:16;25;23;
73565;PMS5003;61846;52.970;-3.168;2023-04-30T06:05:41;34;26;
73565;PMS5003;61846;52.970;-3.168;2023-04-30T06:08:07;24;22;
73565;PMS5003;61846;52.970;-3.168;2023-04-30T06:10:32;35;31;
73565;PMS5003;61846;52.970;-3.168;2023-04-30T06:12:58;38;30;
73565;PMS5003;61846;52.970;-3.168;2023-04-30T06:15:24;39;29;
73565;PMS5003;61846;52.970;-3.168;2023-04-30T06:17:49;32;28;
73565;PMS5003;61846;52.970;-3.168;2023-04-30T06:20:14;35;26;
73565;PMS5003;61846;52.970;-3.168;2023-04-30T06:22:40;34;27;
73565;PMS5003;61846;52.970;-3.168;2023-04-30T06:25:06;37;29;
73565;PMS5003;61846;52.970;-3.168;2023-04-30T06:27:31;34;29;
73565;PMS5003;61846;52.970;-3.168;2023-04-30T06:29:57;33;29;
73565;PMS5003;61846;52.970;-3.168;2023-04-30T06:32:22;29;26;
73565;PMS5003;61846;52.970;-3.168;2023-04-30T06:34:48;37;28;
73565;PMS5003;61846;52.970;-3.168;2023-04-30T06:37:14;33;30;
73565;PMS5003;61846;52.970;-3.168;2023-04-30T06:39:39;32;24;
73565;PMS5003;61846;52.970;-3.168;2023-04-30T06:42:05;33;25;
73565;PMS5003;61846;52.970;-3.168;2023-04-30T06:44:30;29;25;
73565;PMS5003;61846;52.970;-3.168;2023-04-30T06:46:56;30;29;
73565;PMS5003;61846;52.970;-3.168;2023-04-30T06:49:21;28;22;
73565;PMS5003;61846;52.970;-3.168;2023-04-30T06:51:46;36;29;
73565;PMS5003;61846;52.970;-3.168;2023-04-30T06:54:11;36;28;
73565;PMS5003;61846;52.970;-3.168;2023-04-30T06:56:37;40;32;
73565;PMS5003;61846;52.970;-3.168;2023-04-30T06:59:03;29;27;
73565;PMS5003;61846;52.970;-3.168;2023-04-30T07:01:29;39;33;
73565;PMS5003;61846;52.970;-3.168;2023-04-30T07:03:54;28;25;
73565;PMS5003;61846;52.970;-3.168;2023-04-30T07:06:20;34;25;
73565;PMS5003;61846;52.970;-3.168;2023-04-30T07:08:45;33;28;
73565;PMS5003;61846;52.970;-3.168;2023-04-30T07:11:11;38;30;
73565;PMS5003;61846;52.970;-3.168;2023-04-30T07:13:36;35;28;
73565;PMS5003;61846;52.970;-3.168;2023-04-30T07:16:02;26;24;
73565;PMS5003;61846;52.970;-3.168;2023-04-30T07:18:27;22;21;
73565;PMS5003;61846;52.970;-3.168;2023-04-30T07:20:53;30;22;
73565;PMS5003;61846;52.970;-3.168;2023-04-30T07:23:17;20;19;
73565;PMS5003;61846;52.970;-3.168;2023-04-30T07:25:43;23;17;
73565;PMS5003;61846;52.970;-3.168;2023-04-30T07:28:09;18;15;
73565;PMS5003;61846;52.970;-3.168;2023-04-30T07:30:34;25;17;
73565;PMS5003;61846;52.970;-3.168;2023-04-30T07:33:00;21;17;
73565;PMS5003;61846;52.970;-3.168;2023-04-30T07:35:25;13;13;
73565;PMS5003;61846;52.970;-3.168;2023-04-30T07:37:51;21;15;
73565;PMS5003;61846;52.970;-3.168;2023-04-30T07:40:16;15;15;
73565;PMS5003;61846;52.970;-3.168;2023-04-30T07:42:42;19;17;
73565;PMS5003;61846;52.970;-3.168;2023-04-30T07:45:07;17;15;
73565;PMS5003;61846;52.970;-3.168;2023-04-30T07:47:33;23;18;
73565;PMS5003;61846;52.970;-3.168;2023-04-30T07:49:59;12;12;
73565;PMS5003;61846;52.970;-3.168;2023-04-30T07:52:24;14;12;
73565;PMS5003;61846;52.970;-3.168;2023-04-30T07:54:50;14;13;
73565;PMS5003;61846;52.970;-3.168;2023-04-30T07:57:15;15;15;
73565;PMS5003;61846;52.970;-3.168;2023-04-30T07:59:41;25;17;
73565;PMS5003;61846;52.970;-3.168;2023-04-30T08:02:07;15;15;
73565;PMS5003;61846;52.970;-3.168;2023-04-30T08:04:32;15;15;
73565;PMS5003;61846;52.970;-3.168;2023-04-30T08:06:57;18;12;
73565;PMS5003;61846;52.970;-3.168;2023-04-30T08:09:23;11;9;
73565;PMS5003;61846;52.970;-3.168;2023-04-30T08:11:48;16;14;
73565;PMS5003;61846;52.970;-3.168;2023-04-30T08:14:13;11;10;
73565;PMS5003;61846;52.970;-3.168;2023-04-30T08:16:39;13;10;
73565;PMS5003;61846;52.970;-3.168;2023-04-30T08:19:04;10;9;
73565;PMS5003;61846;52.970;-3.168;2023-04-30T08:21:30;11;11;
73565;PMS5003;61846;52.970;-3.168;2023-04-30T08:23:55;7;7;
73565;PMS5003;61846;52.970;-3.168;2023-04-30T08:26:20;7;6;
73565;PMS5003;61846;52.970;-3.168;2023-04-30T08:28:46;11;11;
73565;PMS5003;61846;52.970;-3.168;2023-04-30T08:31:11;10;10;
73565;PMS5003;61846;52.970;-3.168;2023-04-30T08:33:37;9;9;
73565;PMS5003;61846;52.970;-3.168;2023-04-30T08:36:02;11;10;
73565;PMS5003;61846;52.970;-3.168;2023-04-30T08:38:28;8;8;
73565;PMS5003;61846;52.970;-3.168;2023-04-30T08:40:55;10;10;
73565;PMS5003;61846;52.970;-3.168;2023-04-30T08:43:18;11;9;
73565;PMS5003;61846;52.970;-3.168;2023-04-30T08:45:44;9;9;
73565;PMS5003;61846;52.970;-3.168;2023-04-30T08:48:09;8;8;
73565;PMS5003;61846;52.970;-3.168;2023-04-30T08:50:35;7;7;
73565;PMS5003;61846;52.970;-3.168;2023-04-30T08:53:00;6;6;
73565;PMS5003;61846;52.970;-3.168;2023-04-30T08:55:26;16;11;
73565;PMS5003;61846;52.970;-3.168;2023-04-30T08:57:52;9;8;
73565;PMS5003;61846;52.970;-3.168;2023-04-30T09:00:18;9;9;
73565;PMS5003;61846;52.970;-3.168;2023-04-30T09:02:43;5;5;
73565;PMS5003;61846;52.970;-3.168;2023-04-30T09:05:09;9;9;
73565;PMS5003;61846;52.970;-3.168;2023-04-30T09:07:34;5;5;
73565;PMS5003;61846;52.970;-3.168;2023-04-30T09:09:59;5;5;
73565;PMS5003;61846;52.970;-3.168;2023-04-30T09:12:25;5;5;
73565;PMS5003;61846;52.970;-3.168;2023-04-30T09:14:57;6;5;
73565;PMS5003;61846;52.970;-3.168;2023-04-30T09:17:20;6;5;
73565;PMS5003;61846;52.970;-3.168;2023-04-30T09:19:41;4;4;
73565;PMS5003;61846;52.970;-3.168;2023-04-30T09:24:33;4;4;
73565;PMS5003;61846;52.970;-3.168;2023-04-30T09:26:57;4;4;
73565;PMS5003;61846;52.970;-3.168;2023-04-30T09:31:49;5;5;
73565;PMS5003;61846;52.970;-3.168;2023-04-30T09:34:14;6;6;
73565;PMS5003;61846;52.970;-3.168;2023-04-30T09:39:05;3;3;
73565;PMS5003;61846;52.970;-3.168;2023-04-30T09:41:30;3;3;
73565;PMS5003;61846;52.970;-3.168;2023-04-30T09:43:56;3;3;
73565;PMS5003;61846;52.970;-3.168;2023-04-30T09:46:23;3;3;
73565;PMS5003;61846;52.970;-3.168;2023-04-30T09:48:55;5;5;
73565;PMS5003;61846;52.970;-3.168;2023-04-30T09:51:12;5;5;
73565;PMS5003;61846;52.970;-3.168;2023-04-30T09:53:38;4;4;
73565;PMS5003;61846;52.970;-3.168;2023-04-30T09:56:04;3;3;
73565;PMS5003;61846;52.970;-3.168;2023-04-30T09:58:29;3;3;
73565;PMS5003;61846;52.970;-3.168;2023-04-30T10:00:54;6;5;
73565;PMS5003;61846;52.970;-3.168;2023-04-30T10:03:19;3;3;
73565;PMS5003;61846;52.970;-3.168;2023-04-30T10:05:45;7;5;
73565;PMS5003;61846;52.970;-3.168;2023-04-30T10:08:12;4;4;
73565;PMS5003;61846;52.970;-3.168;2023-04-30T10:10:36;5;5;
73565;PMS5003;61846;52.970;-3.168;2023-04-30T10:13:03;5;4;
73565;PMS5003;61846;52.970;-3.168;2023-04-30T10:15:27;2;2;
73565;PMS5003;61846;52.970;-3.168;2023-04-30T10:17:53;5;5;
73565;PMS5003;61846;52.970;-3.168;2023-04-30T10:20:18;4;3;
73565;PMS5003;61846;52.970;-3.168;2023-04-30T10:22:43;2;2;
73565;PMS5003;61846;52.970;-3.168;2023-04-30T10:25:09;5;4;
73565;PMS5003;61846;52.970;-3.168;2023-04-30T10:27:34;4;4;
73565;PMS5003;61846;52.970;-3.168;2023-04-30T10:30:00;3;3;
73565;PMS5003;61846;52.970;-3.168;2023-04-30T10:32:26;6;6;
73565;PMS5003;61846;52.970;-3.168;2023-04-30T10:34:51;3;3;
73565;PMS5003;61846;52.970;-3.168;2023-04-30T10:37:18;3;3;
73565;PMS5003;61846;52.970;-3.168;2023-04-30T10:39:41;3;3;
73565;PMS5003;61846;52.970;-3.168;2023-04-30T10:42:08;2;2;
73565;PMS5003;61846;52.970;-3.168;2023-04-30T10:44:32;3;3;
73565;PMS5003;61846;52.970;-3.168;2023-04-30T10:46:58;4;4;
73565;PMS5003;61846;52.970;-3.168;2023-04-30T10:49:23;3;3;
73565;PMS5003;61846;52.970;-3.168;2023-04-30T10:51:49;5;3;
73565;PMS5003;61846;52.970;-3.168;2023-04-30T10:54:14;4;4;
73565;PMS5003;61846;52.970;-3.168;2023-04-30T10:56:39;3;3;
73565;PMS5003;61846;52.970;-3.168;2023-04-30T10:59:04;4;4;
73565;PMS5003;61846;52.970;-3.168;2023-04-30T11:01:30;4;3;
73565;PMS5003;61846;52.970;-3.168;2023-04-30T11:06:21;2;2;
73565;PMS5003;61846;52.970;-3.168;2023-04-30T11:08:47;5;4;
73565;PMS5003;61846;52.970;-3.168;2023-04-30T11:11:16;3;3;
73565;PMS5003;61846;52.970;-3.168;2023-04-30T11:13:39;3;3;
73565;PMS5003;61846;52.970;-3.168;2023-04-30T11:16:03;4;3;
73565;PMS5003;61846;52.970;-3.168;2023-04-30T11:18:28;3;3;
73565;PMS5003;61846;52.970;-3.168;2023-04-30T11:20:53;5;3;
73565;PMS5003;61846;52.970;-3.168;2023-04-30T11:23:21;3;3;
73565;PMS5003;61846;52.970;-3.168;2023-04-30T11:25:45;1;1;
73565;PMS5003;61846;52.970;-3.168;2023-04-30T11:28:12;2;2;
73565;PMS5003;61846;52.970;-3.168;2023-04-30T11:30:35;1;1;
73565;PMS5003;61846;52.970;-3.168;2023-04-30T11:33:01;4;4;
73565;PMS5003;61846;52.970;-3.168;2023-04-30T11:35:26;2;2;
73565;PMS5003;61846;52.970;-3.168;2023-04-30T11:37:53;3;3;
73565;PMS5003;61846;52.970;-3.168;2023-04-30T11:40:18;3;3;
73565;PMS5003;61846;52.970;-3.168;2023-04-30T11:42:42;1;1;
73565;PMS5003;61846;52.970;-3.168;2023-04-30T11:45:08;2;2;
73565;PMS5003;61846;52.970;-3.168;2023-04-30T11:47:39;1;1;
73565;PMS5003;61846;52.970;-3.168;2023-04-30T11:49:58;2;1;
73565;PMS5003;61846;52.970;-3.168;2023-04-30T11:52:24;1;1;
73565;PMS5003;61846;52.970;-3.168;2023-04-30T11:54:49;1;1;
73565;PMS5003;61846;52.970;-3.168;2023-04-30T11:57:15;2;1;
73565;PMS5003;61846;52.970;-3.168;2023-04-30T11:59:40;1;1;
73565;PMS5003;61846;52.970;-3.168;2023-04-30T12:02:06;2;2;
73565;PMS5003;61846;52.970;-3.168;2023-04-30T12:04:31;3;3;
73565;PMS5003;61846;52.970;-3.168;2023-04-30T12:06:56;2;2;
73565;PMS5003;61846;52.970;-3.168;2023-04-30T12:09:22;2;2;
73565;PMS5003;61846;52.970;-3.168;2023-04-30T12:11:47;3;2;
73565;PMS5003;61846;52.970;-3.168;2023-04-30T12:14:13;2;2;
73565;PMS5003;61846;52.970;-3.168;2023-04-30T12:16:38;1;1;
73565;PMS5003;61846;52.970;-3.168;2023-04-30T12:19:03;2;2;
73565;PMS5003;61846;52.970;-3.168;2023-04-30T12:21:29;2;2;
73565;PMS5003;61846;52.970;-3.168;2023-04-30T12:23:54;1;1;
73565;PMS5003;61846;52.970;-3.168;2023-04-30T12:26:20;2;2;
73565;PMS5003;61846;52.970;-3.168;2023-04-30T12:28:46;3;2;
73565;PMS5003;61846;52.970;-3.168;2023-04-30T12:31:10;0;0;
73565;PMS5003;61846;52.970;-3.168;2023-04-30T12:33:36;1;1;
73565;PMS5003;61846;52.970;-3.168;2023-04-30T12:36:01;3;1;
73565;PMS5003;61846;52.970;-3.168;2023-04-30T12:38:27;3;3;
73565;PMS5003;61846;52.970;-3.168;2023-04-30T12:40:52;0;0;
73565;PMS5003;61846;52.970;-3.168;2023-04-30T12:43:17;2;1;
73565;PMS5003;61846;52.970;-3.168;2023-04-30T12:45:44;2;2;
73565;PMS5003;61846;52.970;-3.168;2023-04-30T12:48:08;3;2;
73565;PMS5003;61846;52.970;-3.168;2023-04-30T12:50:34;1;1;
73565;PMS5003;61846;52.970;-3.168;2023-04-30T12:53:00;3;3;
73565;PMS5003;61846;52.970;-3.168;2023-04-30T12:55:24;4;2;
73565;PMS5003;61846;52.970;-3.168;2023-04-30T13:00:15;1;1;
73565;PMS5003;61846;52.970;-3.168;2023-04-30T13:02:40;3;3;
73565;PMS5003;61846;52.970;-3.168;2023-04-30T13:05:06;3;2;
73565;PMS5003;61846;52.970;-3.168;2023-04-30T13:07:35;4;3;
73565;PMS5003;61846;52.970;-3.168;2023-04-30T13:09:57;2;2;
73565;PMS5003;61846;52.970;-3.168;2023-04-30T13:12:22;2;2;
73565;PMS5003;61846;52.970;-3.168;2023-04-30T13:14:47;2;2;
73565;PMS5003;61846;52.970;-3.168;2023-04-30T13:17:13;5;3;
73565;PMS5003;61846;52.970;-3.168;2023-04-30T13:19:38;1;1;
73565;PMS5003;61846;52.970;-3.168;2023-04-30T13:22:04;2;2;
73565;PMS5003;61846;52.970;-3.168;2023-04-30T13:24:29;3;3;
73565;PMS5003;61846;52.970;-3.168;2023-04-30T13:26:54;1;1;
73565;PMS5003;61846;52.970;-3.168;2023-04-30T13:29:20;2;2;
73565;PMS5003;61846;52.970;-3.168;2023-04-30T13:31:45;1;1;
73565;PMS5003;61846;52.970;-3.168;2023-04-30T13:34:10;4;3;
73565;PMS5003;61846;52.970;-3.168;2023-04-30T13:36:36;1;1;
73565;PMS5003;61846;52.970;-3.168;2023-04-30T13:39:01;2;2;
73565;PMS5003;61846;52.970;-3.168;2023-04-30T13:41:27;1;1;
73565;PMS5003;61846;52.970;-3.168;2023-04-30T13:43:52;2;1;
73565;PMS5003;61846;52.970;-3.168;2023-04-30T13:46:17;2;2;
73565;PMS5003;61846;52.970;-3.168;2023-04-30T13:48:43;1;1;
73565;PMS5003;61846;52.970;-3.168;2023-04-30T13:51:08;4;2;
73565;PMS5003;61846;52.970;-3.168;2023-04-30T13:53:33;3;3;
73565;PMS5003;61846;52.970;-3.168;2023-04-30T13:55:59;3;3;
73565;PMS5003;61846;52.970;-3.168;2023-04-30T13:58:24;1;1;
73565;PMS5003;61846;52.970;-3.168;2023-04-30T14:00:50;2;2;
73565;PMS5003;61846;52.970;-3.168;2023-04-30T14:03:15;2;2;
73565;PMS5003;61846;52.970;-3.168;2023-04-30T14:05:40;10;7;
73565;PMS5003;61846;52.970;-3.168;2023-04-30T14:08:06;6;6;
73565;PMS5003;61846;52.970;-3.168;2023-04-30T14:10:31;2;2;
73565;PMS5003;61846;52.970;-3.168;2023-04-30T14:12:56;2;2;
73565;PMS5003;61846;52.970;-3.168;2023-04-30T14:15:22;3;3;
73565;PMS5003;61846;52.970;-3.168;2023-04-30T14:17:47;3;3;
73565;PMS5003;61846;52.970;-3.168;2023-04-30T14:20:12;5;5;
73565;PMS5003;61846;52.970;-3.168;2023-04-30T14:22:38;7;7;
73565;PMS5003;61846;52.970;-3.168;2023-04-30T14:25:03;4;4;
73565;PMS5003;61846;52.970;-3.168;2023-04-30T14:27:28;5;5;
73565;PMS5003;61846;52.970;-3.168;2023-04-30T14:29:54;5;5;
73565;PMS5003;61846;52.970;-3.168;2023-04-30T14:32:19;8;3;
73565;PMS5003;61846;52.970;-3.168;2023-04-30T14:34:45;1;1;
73565;PMS5003;61846;52.970;-3.168;2023-04-30T14:37:10;4;2;
73565;PMS5003;61846;52.970;-3.168;2023-04-30T14:39:36;3;2;
73565;PMS5003;61846;52.970;-3.168;2023-04-30T14:42:01;6;3;
73565;PMS5003;61846;52.970;-3.168;2023-04-30T14:44:26;7;7;
73565;PMS5003;61846;52.970;-3.168;2023-04-30T14:46:52;4;2;
73565;PMS5003;61846;52.970;-3.168;2023-04-30T14:49:17;6;6;
73565;PMS5003;61846;52.970;-3.168;2023-04-30T14:51:42;3;3;
73565;PMS5003;61846;52.970;-3.168;2023-04-30T14:54:08;5;2;
73565;PMS5003;61846;52.970;-3.168;2023-04-30T14:56:33;7;2;
73565;PMS5003;61846;52.970;-3.168;2023-04-30T14:58:58;1;1;
73565;PMS5003;61846;52.970;-3.168;2023-04-30T15:01:24;2;1;
73565;PMS5003;61846;52.970;-3.168;2023-04-30T15:03:49;6;3;
73565;PMS5003;61846;52.970;-3.168;2023-04-30T15:06:14;3;3;
73565;PMS5003;61846;52.970;-3.168;2023-04-30T15:08:40;1;1;
73565;PMS5003;61846;52.970;-3.168;2023-04-30T15:11:05;7;6;
73565;PMS5003;61846;52.970;-3.168;2023-04-30T15:13:30;5;3;
73565;PMS5003;61846;52.970;-3.168;2023-04-30T15:15:55;6;5;
73565;PMS5003;61846;52.970;-3.168;2023-04-30T15:18:21;2;2;
73565;PMS5003;61846;52.970;-3.168;2023-04-30T15:20:46;3;3;
73565;PMS5003;61846;52.970;-3.168;2023-04-30T15:23:11;5;5;
73565;PMS5003;61846;52.970;-3.168;2023-04-30T15:25:37;4;4;
73565;PMS5003;61846;52.970;-3.168;2023-04-30T15:28:02;2;2;
73565;PMS5003;61846;52.970;-3.168;2023-04-30T15:30:27;2;2;
73565;PMS5003;61846;52.970;-3.168;2023-04-30T15:32:53;5;3;
73565;PMS5003;61846;52.970;-3.168;2023-04-30T15:35:18;1;1;
73565;PMS5003;61846;52.970;-3.168;2023-04-30T15:37:44;5;3;
73565;PMS5003;61846;52.970;-3.168;2023-04-30T15:40:09;8;4;
73565;PMS5003;61846;52.970;-3.168;2023-04-30T15:42:34;4;3;
73565;PMS5003;61846;52.970;-3.168;2023-04-30T15:45:00;2;2;
73565;PMS5003;61846;52.970;-3.168;2023-04-30T15:47:25;4;4;
73565;PMS5003;61846;52.970;-3.168;2023-04-30T15:49:50;0;0;
73565;PMS5003;61846;52.970;-3.168;2023-04-30T15:52:16;4;3;
73565;PMS5003;61846;52.970;-3.168;2023-04-30T15:54:41;4;3;
73565;PMS5003;61846;52.970;-3.168;2023-04-30T15:57:06;3;3;
73565;PMS5003;61846;52.970;-3.168;2023-04-30T15:59:32;2;2;
73565;PMS5003;61846;52.970;-3.168;2023-04-30T16:01:57;2;2;
73565;PMS5003;61846;52.970;-3.168;2023-04-30T16:04:22;6;4;
73565;PMS5003;61846;52.970;-3.168;2023-04-30T16:06:48;2;2;
73565;PMS5003;61846;52.970;-3.168;2023-04-30T16:09:13;1;1;
73565;PMS5003;61846;52.970;-3.168;2023-04-30T16:11:39;4;4;
73565;PMS5003;61846;52.970;-3.168;2023-04-30T16:14:04;2;2;
73565;PMS5003;61846;52.970;-3.168;2023-04-30T16:16:29;2;2;